Time;durP1;ratioP1;P1;durP2;ratioP2;P2;SDS_P1;SDS_P2;PMS_P1;PMS_P2;Temp;Humidity;BMP_temperature;BMP_pressure;BME280_temperature;BME280_humidity;BME280_pressure;Samples;Min_cycle;Max_cycle;Signal;HPM_P1;HPM_P2
2022/10/12 00:02:02;;;;;;;51.95;23.67;;;;;;;10.93;100.00;97237.34;4963495;28;20049;-66
2022/10/12 00:04:27;;;;;;;49.20;26.25;;;;;;;10.87;100.00;97226.66;4959534;28;20113;-66
2022/10/12 00:06:53;;;;;;;62.33;29.58;;;;;;;10.84;100.00;97232.03;4966720;28;20486;-66
2022/10/12 00:09:18;;;;;;;55.85;28.80;;;;;;;10.77;100.00;97240.91;4962367;28;20051;-66
2022/10/12 00:11:43;;;;;;;58.88;28.50;;;;;;;10.78;100.00;97230.75;4962614;28;20046;-67
2022/10/12 00:14:09;;;;;;;65.10;33.67;;;;;;;10.85;100.00;97237.19;4957298;28;20054;-67
2022/10/12 00:16:35;;;;;;;62.92;33.08;;;;;;;10.86;100.00;97236.03;4962996;28;20039;-66
2022/10/12 00:19:01;;;;;;;67.82;32.38;;;;;;;10.90;100.00;97233.38;4963895;28;20098;-64
2022/10/12 00:21:28;;;;;;;72.55;33.30;;;;;;;10.93;100.00;97240.09;4958994;28;20046;-66
2022/10/12 00:24:00;;;;;;;72.75;32.05;;;;;;;11.03;100.00;97229.38;4963204;28;20079;-67
2022/10/12 00:26:27;;;;;;;58.05;30.75;;;;;;;11.06;100.00;97242.38;4957012;28;20043;-68
2022/10/12 00:28:58;;;;;;;66.25;31.63;;;;;;;11.18;100.00;97235.19;4967683;28;20106;-68
2022/10/12 00:31:24;;;;;;;60.05;31.42;;;;;;;11.14;100.00;97235.09;4975468;28;20054;-68
2022/10/12 00:33:51;;;;;;;62.30;28.92;;;;;;;11.19;100.00;97239.53;4970878;28;20057;-69
2022/10/12 00:36:25;;;;;;;51.80;28.02;;;;;;;11.07;100.00;97233.00;4960916;28;20113;-68
2022/10/12 00:38:54;;;;;;;59.00;28.63;;;;;;;11.03;100.00;97234.06;4965157;28;20039;-67
2022/10/12 00:41:22;;;;;;;56.45;27.88;;;;;;;11.11;100.00;97233.09;4959957;28;20484;-67
2022/10/12 00:43:49;;;;;;;59.47;27.73;;;;;;;11.03;100.00;97236.81;4965586;28;20526;-66
2022/10/12 00:46:23;;;;;;;51.38;27.58;;;;;;;11.13;100.00;97229.97;4959576;28;20129;-68
2022/10/12 00:49:11;;;;;;;61.25;28.73;;;;;;;11.13;100.00;97233.53;4966504;28;20415;-68
2022/10/12 00:51:39;;;;;;;51.85;25.77;;;;;;;11.31;100.00;97228.44;4963873;28;20443;-67
2022/10/12 00:54:09;;;;;;;54.15;28.13;;;;;;;11.33;100.00;97223.38;4960843;28;20043;-68
2022/10/12 00:56:39;;;;;;;59.50;26.50;;;;;;;11.26;100.00;97231.47;4972799;28;20054;-67
2022/10/12 00:59:09;;;;;;;58.28;27.50;;;;;;;11.22;100.00;97230.59;4974172;28;20045;-67
2022/10/12 01:01:37;;;;;;;60.13;29.20;;;;;;;11.19;100.00;97229.34;4965184;28;20069;-67
2022/10/12 01:04:04;;;;;;;60.47;30.80;;;;;;;11.25;100.00;97238.91;4964140;28;20043;-68
2022/10/12 01:06:31;;;;;;;56.60;27.85;;;;;;;11.33;100.00;97234.34;4964547;28;20057;-68
2022/10/12 01:08:57;;;;;;;64.78;31.33;;;;;;;11.33;100.00;97239.06;4963829;28;20148;-67
2022/10/12 01:11:22;;;;;;;61.30;31.65;;;;;;;11.34;100.00;97238.66;4959537;28;20054;-67
2022/10/12 01:13:47;;;;;;;64.60;30.90;;;;;;;11.43;100.00;97246.69;4964965;28;20043;-68
2022/10/12 01:16:31;;;;;;;62.10;32.40;;;;;;;11.40;100.00;97250.19;4958963;28;20570;-68
2022/10/12 01:19:24;;;;;;;62.10;33.42;;;;;;;11.40;100.00;97255.66;4966699;28;20058;-68
2022/10/12 01:22:06;;;;;;;60.97;31.52;;;;;;;11.46;100.00;97256.97;4984361;28;20125;-69
2022/10/12 01:24:53;;;;;;;60.40;30.02;;;;;;;11.59;100.00;97249.41;4985212;28;20039;-68
2022/10/12 01:27:45;;;;;;;66.65;34.55;;;;;;;11.51;100.00;97255.91;4981035;28;20041;-68
2022/10/12 01:30:23;;;;;;;75.38;33.40;;;;;;;11.52;100.00;97243.75;4980058;28;20049;-67
2022/10/12 01:32:51;;;;;;;64.70;32.33;;;;;;;11.50;100.00;97241.38;4985305;28;20068;-67
2022/10/12 01:35:53;;;;;;;65.10;32.75;;;;;;;11.51;100.00;97242.97;4979153;28;20050;-67
2022/10/12 01:38:30;;;;;;;59.42;30.33;;;;;;;11.62;100.00;97243.97;4979916;28;20042;-66
2022/10/12 01:41:25;;;;;;;61.42;31.02;;;;;;;11.60;100.00;97238.06;4983807;28;20042;-66
2022/10/12 01:43:51;;;;;;;59.17;31.15;;;;;;;11.55;100.00;97237.56;4958654;28;20460;-67
2022/10/12 01:46:17;;;;;;;63.80;30.60;;;;;;;11.60;100.00;97234.53;4954842;28;20137;-66
2022/10/12 01:48:44;;;;;;;61.10;31.35;;;;;;;11.60;100.00;97237.28;4961135;28;20039;-66
2022/10/12 01:51:13;;;;;;;68.38;31.27;;;;;;;11.62;100.00;97233.00;4955969;28;20454;-66
2022/10/12 01:53:57;;;;;;;71.68;33.28;;;;;;;11.52;100.00;97232.78;4963966;28;20047;-66
2022/10/12 01:56:52;;;;;;;67.20;32.38;;;;;;;11.52;100.00;97235.53;4959383;28;20138;-67
2022/10/12 01:59:38;;;;;;;75.25;34.00;;;;;;;11.51;100.00;97233.97;4960961;28;20093;-67
2022/10/12 02:02:18;;;;;;;69.53;33.78;;;;;;;11.57;100.00;97229.75;4959164;28;20062;-66
2022/10/12 02:04:47;;;;;;;;;;;;;;;11.58;100.00;97232.16;4964415;28;20047;-66
2022/10/12 02:07:21;;;;;;;68.53;33.22;;;;;;;11.62;100.00;97232.22;4958249;28;20004;-67
2022/10/12 02:09:47;;;;;;;70.53;33.78;;;;;;;11.57;100.00;97229.75;4964541;28;20073;-68
2022/10/12 02:12:19;;;;;;;71.90;33.55;;;;;;;11.52;100.00;97230.03;4959426;28;20488;-67
2022/10/12 02:14:49;;;;;;;77.47;33.97;;;;;;;11.54;100.00;97230.47;4972215;28;20042;-67
2022/10/12 02:17:19;;;;;;;76.88;36.05;;;;;;;11.53;100.00;97229.69;4959391;28;20522;-67
2022/10/12 02:19:51;;;;;;;72.72;35.47;;;;;;;11.50;100.00;97218.63;4964501;28;20038;-67
2022/10/12 02:22:17;;;;;;;72.28;34.30;;;;;;;11.45;100.00;97214.22;4958391;28;20046;-67
2022/10/12 02:24:47;;;;;;;72.43;33.30;;;;;;;11.40;100.00;97214.53;4960326;28;20163;-68
2022/10/12 02:27:16;;;;;;;69.72;33.38;;;;;;;11.38;100.00;97212.13;4953741;28;20182;-67
2022/10/12 02:29:44;;;;;;;77.70;35.28;;;;;;;11.39;100.00;97212.94;4975517;28;20050;-67
2022/10/12 02:32:24;;;;;;;77.97;35.67;;;;;;;11.41;100.00;97214.13;4959596;28;20039;-67
2022/10/12 02:35:00;;;;;;;;;;;;;;;11.42;100.00;97215.75;4964016;28;20131;-67
2022/10/12 02:37:39;;;;;;;70.57;31.83;;;;;;;11.41;100.00;97214.13;4958456;28;19918;-68
2022/10/12 02:40:28;;;;;;;68.60;33.65;;;;;;;11.40;100.00;97214.53;4960012;28;20049;-67
2022/10/12 02:43:00;;;;;;;69.75;32.42;;;;;;;11.46;100.00;97207.59;4963994;28;20045;-67
2022/10/12 02:45:27;;;;;;;70.72;32.85;;;;;;;11.52;100.00;97214.38;4958196;28;20070;-67
2022/10/12 02:47:56;;;;;;;56.90;30.08;;;;;;;11.74;100.00;97214.81;4961334;28;20395;-66
2022/10/12 02:50:23;;;;;;;58.90;29.27;;;;;;;11.97;100.00;97221.16;4958008;28;20812;-68
2022/10/12 02:52:50;;;;;;;56.63;28.60;;;;;;;12.13;100.00;97223.81;4963507;28;20121;-68
2022/10/12 02:55:16;;;;;;;51.33;27.50;;;;;;;12.15;100.00;97217.97;4957951;28;20054;-68
2022/10/12 02:57:41;;;;;;;57.05;27.33;;;;;;;12.16;100.00;97214.88;4964217;28;20046;-68
2022/10/12 03:00:07;;;;;;;54.03;27.27;;;;;;;12.14;100.00;97219.16;4958415;28;20066;-67
2022/10/12 03:02:33;;;;;;;55.80;27.35;;;;;;;12.32;100.00;97214.78;4963210;28;20051;-67
2022/10/12 03:04:58;;;;;;;46.97;26.02;;;;;;;12.43;100.00;97225.94;4962079;28;20043;-68
2022/10/12 03:07:24;;;;;;;47.60;26.42;;;;;;;12.42;100.00;97218.84;4958241;28;20046;-68
2022/10/12 03:09:49;;;;;;;49.00;24.73;;;;;;;12.41;100.00;97223.56;4963593;28;20041;-67
2022/10/12 03:12:15;;;;;;;46.92;25.15;;;;;;;12.34;100.00;97230.88;4958527;28;20397;-68
2022/10/12 03:14:40;;;;;;;43.58;24.17;;;;;;;12.34;100.00;97225.41;4964049;28;20543;-68
2022/10/12 03:17:06;;;;;;;50.70;24.70;;;;;;;12.34;100.00;97220.69;4957891;28;20038;-65
2022/10/12 03:19:31;;;;;;;43.22;24.83;;;;;;;12.27;100.00;97223.31;4963237;28;20034;-68
2022/10/12 03:21:56;;;;;;;46.67;26.05;;;;;;;12.27;100.00;97225.25;4962287;28;20038;-68
2022/10/12 03:24:22;;;;;;;46.95;23.48;;;;;;;12.21;100.00;97227.53;4958659;28;20067;-68
2022/10/12 03:26:47;;;;;;;43.38;24.77;;;;;;;12.21;100.00;97230.28;4962355;28;20053;-66
2022/10/12 03:29:12;;;;;;;43.05;24.60;;;;;;;12.23;100.00;97225.19;4973032;28;20057;-67
2022/10/12 03:31:38;;;;;;;46.92;24.08;;;;;;;12.30;100.00;97219.84;4962462;28;20369;-67
2022/10/12 03:34:03;;;;;;;44.40;24.00;;;;;;;12.32;100.00;97228.50;4959742;28;20137;-67
2022/10/12 03:36:29;;;;;;;44.58;24.55;;;;;;;12.33;100.00;97230.06;4960491;28;20047;-67
2022/10/12 03:38:55;;;;;;;43.58;24.35;;;;;;;12.39;100.00;97225.88;4961978;28;20070;-67
2022/10/12 03:41:21;;;;;;;40.72;23.60;;;;;;;12.41;100.00;97220.81;4956732;28;20105;-67
2022/10/12 03:43:46;;;;;;;45.50;24.95;;;;;;;12.33;100.00;97223.78;4962506;28;20109;-67
2022/10/12 03:46:12;;;;;;;44.78;23.30;;;;;;;12.24;100.00;97233.09;4956646;28;20042;-67
2022/10/12 03:48:38;;;;;;;45.40;24.15;;;;;;;12.20;100.00;97229.44;4962202;28;20042;-67
2022/10/12 03:51:03;;;;;;;42.78;23.92;;;;;;;12.21;100.00;97235.75;4959713;28;20049;-66
2022/10/12 03:53:29;;;;;;;45.35;24.17;;;;;;;12.21;100.00;97233.00;4961141;28;20134;-67
2022/10/12 03:55:55;;;;;;;48.15;23.90;;;;;;;12.24;100.00;97229.53;4961870;28;20403;-67
2022/10/12 03:58:20;;;;;;;43.55;22.48;;;;;;;12.34;100.00;97239.91;4957070;28;20045;-67
2022/10/12 04:00:45;;;;;;;40.70;22.67;;;;;;;12.40;100.00;97237.66;4961685;28;20057;-67
2022/10/12 04:03:11;;;;;;;41.95;22.42;;;;;;;12.40;100.00;97234.91;4956186;28;20113;-67
2022/10/12 04:05:36;;;;;;;43.53;21.13;;;;;;;12.56;100.00;97232.84;4963507;28;20486;-68
2022/10/12 04:08:02;;;;;;;38.90;20.95;;;;;;;12.61;100.00;97240.00;4946558;28;20042;-68
2022/10/12 04:10:28;;;;;;;35.30;20.10;;;;;;;12.69;100.00;97241.69;4962088;28;20042;-66
2022/10/12 04:12:56;;;;;;;42.13;20.15;;;;;;;12.70;100.00;97239.75;4963370;28;20511;-68
2022/10/12 04:15:21;;;;;;;34.70;20.48;;;;;;;12.68;100.00;97240.09;4960784;28;20587;-67
2022/10/12 04:17:47;;;;;;;40.33;21.60;;;;;;;12.68;100.00;97239.31;4964821;28;20047;-68
2022/10/12 04:20:12;;;;;;;34.53;20.17;;;;;;;12.60;100.00;97235.63;4960281;28;20504;-67
2022/10/12 04:22:38;;;;;;;42.47;20.73;;;;;;;12.62;100.00;97239.63;4964989;28;20043;-67
2022/10/12 04:25:04;;;;;;;42.42;20.70;;;;;;;12.64;100.00;97239.25;4960437;28;20042;-67
2022/10/12 04:27:30;;;;;;;43.80;22.40;;;;;;;12.61;100.00;97237.25;4962653;28;20043;-67
2022/10/12 04:29:55;;;;;;;40.78;21.05;;;;;;;12.62;100.00;97244.31;4961546;28;20602;-66
2022/10/12 04:32:21;;;;;;;39.60;21.20;;;;;;;12.60;100.00;97239.22;4957928;28;21473;-66
2022/10/12 04:34:46;;;;;;;41.97;21.27;;;;;;;12.61;100.00;97238.03;4967000;28;20082;-67
2022/10/12 04:37:12;;;;;;;42.83;23.90;;;;;;;12.62;100.00;97236.88;4960263;28;20066;-66
2022/10/12 04:39:37;;;;;;;48.05;23.38;;;;;;;12.72;100.00;97237.41;4963826;28;20495;-66
2022/10/12 04:42:03;;;;;;;48.50;24.45;;;;;;;12.63;100.00;97238.44;4960309;28;20043;-67
2022/10/12 04:44:28;;;;;;;41.92;22.70;;;;;;;12.62;100.00;97244.31;4959811;28;20047;-67
2022/10/12 04:46:54;;;;;;;44.38;23.63;;;;;;;12.68;100.00;97242.84;4961999;28;20110;-67
2022/10/12 04:49:19;;;;;;;44.20;24.10;;;;;;;12.65;100.00;97242.78;4958725;28;20046;-68
2022/10/12 04:51:45;;;;;;;48.67;23.85;;;;;;;12.62;100.00;97247.06;4961098;28;20058;-68
2022/10/12 04:54:10;;;;;;;50.83;24.63;;;;;;;12.56;100.00;97246.56;4956984;28;20070;-68
2022/10/12 04:56:36;;;;;;;47.03;24.42;;;;;;;12.66;100.00;97247.94;4961062;28;20058;-67
2022/10/12 04:59:02;;;;;;;45.45;23.10;;;;;;;12.67;100.00;97246.75;4962759;28;20042;-67
2022/10/12 05:01:27;;;;;;;40.10;22.50;;;;;;;12.73;100.00;97252.72;4969044;28;20049;-67
2022/10/12 05:03:53;;;;;;;44.30;20.25;;;;;;;12.68;100.00;97244.81;4980524;28;20056;-67
2022/10/12 05:06:18;;;;;;;41.83;21.05;;;;;;;12.63;100.00;97243.94;4980031;28;20051;-69
2022/10/12 05:08:44;;;;;;;45.53;22.17;;;;;;;12.70;100.00;97251.53;4984417;28;20062;-68
2022/10/12 05:11:09;;;;;;;49.55;24.10;;;;;;;12.55;100.00;97245.00;4980766;28;20041;-67
2022/10/12 05:13:35;;;;;;;43.58;22.95;;;;;;;12.49;100.00;97243.69;4985128;28;20092;-66
2022/10/12 05:16:00;;;;;;;50.65;25.85;;;;;;;12.52;100.00;97248.47;4980724;28;20046;-67
2022/10/12 05:18:25;;;;;;;48.15;26.33;;;;;;;12.47;100.00;97250.72;4975653;28;20038;-67
2022/10/12 05:20:51;;;;;;;47.35;25.90;;;;;;;12.52;100.00;97251.22;4984179;28;20384;-66
2022/10/12 05:23:16;;;;;;;45.28;22.27;;;;;;;12.44;100.00;97252.25;4979027;28;20046;-67
2022/10/12 05:25:41;;;;;;;45.83;22.98;;;;;;;12.46;100.00;97251.88;4984181;28;20077;-67
2022/10/12 05:28:08;;;;;;;51.40;22.95;;;;;;;12.48;100.00;97249.56;4979382;28;20061;-67
2022/10/12 05:30:33;;;;;;;42.65;23.00;;;;;;;12.44;100.00;97260.47;4983720;28;20062;-67
2022/10/12 05:32:59;;;;;;;44.13;24.08;;;;;;;12.37;100.00;97255.69;4984075;28;20046;-67
2022/10/12 05:35:24;;;;;;;45.92;24.27;;;;;;;12.29;100.00;97256.69;4977889;28;20045;-67
2022/10/12 05:37:50;;;;;;;48.80;23.98;;;;;;;12.34;100.00;97266.59;4983860;28;20525;-67
2022/10/12 05:40:15;;;;;;;47.92;24.00;;;;;;;12.46;100.00;97265.63;4978560;28;20047;-67
2022/10/12 05:42:43;;;;;;;43.42;22.83;;;;;;;12.49;100.00;97268.44;4983059;28;20464;-66
2022/10/12 05:45:10;;;;;;;49.67;23.63;;;;;;;12.52;100.00;97264.97;4977916;28;20345;-67
2022/10/12 05:47:35;;;;;;;41.47;23.15;;;;;;;12.58;100.00;97268.19;4983914;28;20577;-67
2022/10/12 05:50:01;;;;;;;43.95;22.58;;;;;;;12.59;100.00;97267.84;4984509;28;20073;-67
2022/10/12 05:52:26;;;;;;;46.00;23.27;;;;;;;12.59;100.00;97267.84;4979597;28;20049;-66
2022/10/12 05:54:52;;;;;;;44.63;23.65;;;;;;;12.57;100.00;97272.13;4983999;28;20046;-68
2022/10/12 05:57:18;;;;;;;39.42;22.92;;;;;;;12.55;100.00;97277.16;4978552;28;20034;-67
2022/10/12 05:59:44;;;;;;;49.03;24.50;;;;;;;12.55;100.00;97274.41;4980991;28;20063;-66
2022/10/12 06:02:14;;;;;;;49.90;24.25;;;;;;;12.50;100.00;97278.28;4977548;28;20128;-66
2022/10/12 06:04:40;;;;;;;46.78;24.02;;;;;;;12.51;100.00;97279.84;4984938;28;20077;-66
2022/10/12 06:07:05;;;;;;;40.55;22.02;;;;;;;12.51;100.00;97274.34;4976798;28;20073;-64
2022/10/12 06:09:31;;;;;;;50.67;25.42;;;;;;;12.58;100.00;97276.44;4983162;28;20043;-66
2022/10/12 06:11:57;;;;;;;43.78;23.75;;;;;;;12.61;100.00;97272.97;4984298;28;20046;-67
2022/10/12 06:14:22;;;;;;;45.88;24.95;;;;;;;12.65;100.00;97273.81;4977220;28;20049;-67
2022/10/12 06:16:48;;;;;;;49.58;23.85;;;;;;;12.70;100.00;97283.72;4983371;28;20506;-66
2022/10/12 06:19:13;;;;;;;46.60;23.58;;;;;;;12.82;100.00;97272.53;4978658;28;20096;-68
2022/10/12 06:21:39;;;;;;;43.33;21.83;;;;;;;12.85;100.00;97285.53;4983114;28;20084;-66
2022/10/12 06:24:05;;;;;;;39.97;22.42;;;;;;;12.89;100.00;97277.34;4978216;28;20144;-65
2022/10/12 06:26:30;;;;;;;46.60;23.83;;;;;;;12.89;100.00;97275.41;4981876;28;20448;-68
2022/10/12 06:28:55;;;;;;;40.88;22.10;;;;;;;12.95;100.00;97273.16;4983087;28;20060;-67
2022/10/12 06:31:21;;;;;;;39.53;22.20;;;;;;;12.94;100.00;97277.03;4978202;28;20111;-68
2022/10/12 06:33:49;;;;;;;40.03;22.83;;;;;;;12.98;100.00;97281.44;4983953;28;20133;-68
2022/10/12 06:36:15;;;;;;;46.70;22.73;;;;;;;13.00;100.00;97279.13;4977779;28;20065;-68
2022/10/12 06:38:41;;;;;;;49.10;23.10;;;;;;;13.01;100.00;97282.66;4984088;28;20042;-68
2022/10/12 06:41:06;;;;;;;42.42;21.90;;;;;;;13.04;100.00;97281.94;4978037;28;20054;-68
2022/10/12 06:43:33;;;;;;;39.63;21.50;;;;;;;13.09;100.00;97278.06;4982535;28;20546;-68
2022/10/12 06:46:00;;;;;;;36.83;20.70;;;;;;;13.15;100.00;97279.34;4981963;28;20043;-68
2022/10/12 06:48:26;;;;;;;38.78;22.15;;;;;;;13.17;100.00;97282.53;4978613;28;20043;-68
2022/10/12 06:50:51;;;;;;;41.38;20.75;;;;;;;13.31;100.00;97288.25;4982972;28;20047;-67
2022/10/12 06:53:16;;;;;;;41.92;22.10;;;;;;;13.31;100.00;97284.72;4978951;28;20074;-67
2022/10/12 06:55:42;;;;;;;38.58;20.02;;;;;;;13.31;100.00;97282.75;4982450;28;20113;-66
2022/10/12 06:58:07;;;;;;;39.80;20.48;;;;;;;13.49;100.00;97285.78;4978332;28;20077;-66
2022/10/12 07:00:33;;;;;;;40.90;20.60;;;;;;;13.64;100.00;97278.50;4984671;28;20047;-66
2022/10/12 07:02:58;;;;;;;37.78;20.92;;;;;;;13.68;100.00;97286.81;4980061;28;20398;-67
2022/10/12 07:05:24;;;;;;;40.30;19.65;;;;;;;13.68;100.00;97289.56;4974861;28;20054;-66
2022/10/12 07:07:49;;;;;;;38.97;20.63;;;;;;;13.55;100.00;97286.25;4979297;28;20088;-66
2022/10/12 07:10:14;;;;;;;42.25;20.65;;;;;;;13.66;100.00;97297.41;4975621;28;20121;-68
2022/10/12 07:12:40;;;;;;;43.15;19.30;;;;;;;13.82;100.00;97292.50;4980105;28;20048;-68
2022/10/12 07:15:07;;;;;;;44.80;20.00;;;;;;;13.82;100.00;97295.25;4976924;28;20137;-68
2022/10/12 07:17:32;;;;;;;42.58;19.70;;;;;;;13.72;100.00;97291.22;4981210;28;20038;-67
2022/10/12 07:19:58;;;;;;;39.05;18.55;;;;;;;13.78;100.00;97299.94;4980824;28;20403;-67
2022/10/12 07:22:23;;;;;;;34.03;18.33;;;;;;;13.86;100.00;97296.09;4972865;28;20057;-67
2022/10/12 07:24:48;;;;;;;35.08;19.25;;;;;;;13.86;100.00;97295.31;4982314;28;20042;-67
2022/10/12 07:27:14;;;;;;;36.42;19.98;;;;;;;13.85;100.00;97291.75;4976359;28;20133;-68
2022/10/12 07:29:40;;;;;;;40.55;20.77;;;;;;;13.95;100.00;97295.81;4982084;28;20046;-67
2022/10/12 07:32:06;;;;;;;39.10;20.30;;;;;;;14.22;100.00;97295.75;4977029;28;20047;-66
2022/10/12 07:34:32;;;;;;;34.63;19.42;;;;;;;14.26;100.00;97299.31;4981723;28;20081;-67
2022/10/12 07:36:57;;;;;;;41.53;20.92;;;;;;;14.20;100.00;97298.88;4981740;28;20066;-67
2022/10/12 07:39:23;;;;;;;37.60;20.50;;;;;;;14.17;100.00;97302.41;4977533;28;20062;-68
2022/10/12 07:41:50;;;;;;;39.50;20.05;;;;;;;14.17;100.00;97302.41;4981378;28;20038;-69
2022/10/12 07:44:16;;;;;;;45.25;20.80;;;;;;;14.08;100.00;97299.13;4977228;28;20114;-68
2022/10/12 07:46:41;;;;;;;49.08;20.83;;;;;;;14.10;100.00;97297.59;4977521;28;20129;-67
2022/10/12 07:49:07;;;;;;;44.05;20.73;;;;;;;14.24;100.00;97294.22;4968795;28;20049;-67
2022/10/12 07:51:33;;;;;;;41.30;20.45;;;;;;;14.09;100.00;97301.50;4980350;28;20506;-68
2022/10/12 07:53:59;;;;;;;43.15;20.25;;;;;;;14.20;100.00;97303.59;4982422;28;20130;-68
2022/10/12 07:56:25;;;;;;;44.15;20.98;;;;;;;14.11;100.00;97306.63;4977046;28;20050;-67
2022/10/12 07:58:55;;;;;;;39.33;19.92;;;;;;;14.32;100.00;97304.13;4982536;28;20039;-68
2022/10/12 08:01:23;;;;;;;44.47;20.15;;;;;;;14.57;100.00;97300.84;4976092;28;20042;-67
2022/10/12 08:03:49;;;;;;;44.03;20.88;;;;;;;14.54;100.00;97299.63;4980817;28;20048;-68
2022/10/12 08:06:21;;;;;;;39.28;20.42;;;;;;;14.63;100.00;97309.59;4975523;28;20038;-66
2022/10/12 08:08:47;;;;;;;44.20;20.92;;;;;;;14.58;100.00;97309.94;4982477;28;20070;-67
2022/10/12 08:11:13;;;;;;;38.17;20.48;;;;;;;14.69;100.00;97305.31;4976659;28;20543;-66
2022/10/12 08:13:39;;;;;;;37.42;19.13;;;;;;;14.79;100.00;97306.63;4981814;28;20494;-67
2022/10/12 08:16:09;;;;;;;45.33;21.38;;;;;;;14.41;100.00;97306.59;4974918;28;20038;-67
2022/10/12 08:18:34;;;;;;;41.88;21.85;;;;;;;13.68;100.00;97300.56;4981824;28;20124;-66
2022/10/12 08:21:03;;;;;;;42.78;22.73;;;;;;;13.26;100.00;97301.50;4981747;28;20093;-66
2022/10/12 08:23:28;;;;;;;51.95;22.88;;;;;;;13.34;100.00;97304.03;4972399;28;20058;-65
2022/10/12 08:25:57;;;;;;;43.97;22.52;;;;;;;13.50;100.00;97301.09;4981083;28;20057;-66
2022/10/12 08:28:23;;;;;;;67.28;35.50;;;;;;;13.39;100.00;97298.19;4974915;28;20053;-67
2022/10/12 08:30:49;;;;;;;50.10;22.92;;;;;;;13.32;100.00;97306.34;4982918;28;20256;-66
2022/10/12 08:33:16;;;;;;;45.38;22.33;;;;;;;13.63;100.00;97301.69;4981612;28;20101;-68
2022/10/12 08:35:42;;;;;;;41.53;20.75;;;;;;;13.90;100.00;97302.47;4986378;28;20042;-68
2022/10/12 08:38:13;;;;;;;36.17;20.05;;;;;;;14.02;100.00;97309.66;4977008;28;20502;-68
2022/10/12 08:41:04;;;;;;;35.03;19.35;;;;;;;14.23;100.00;97308.34;4982248;28;20049;-68
2022/10/12 08:44:01;;;;;;;33.78;18.48;;;;;;;14.36;100.00;97312.44;4977652;28;20522;-68
2022/10/12 08:46:28;;;;;;;29.83;17.00;;;;;;;14.45;100.00;97310.16;4972425;28;20057;-66
2022/10/12 08:48:59;;;;;;;43.60;22.45;;;;;;;14.01;100.00;97307.28;4982028;28;20050;-66
2022/10/12 08:51:31;;;;;;;28.30;16.55;;;;;;;14.01;100.00;97310.84;4973835;28;20042;-66
2022/10/12 08:54:05;;;;;;;28.77;15.98;;;;;;;14.32;100.00;97300.59;4984385;28;20060;-66
2022/10/12 08:56:33;;;;;;;30.50;16.67;;;;;;;14.35;100.00;97313.63;4982207;28;20540;-66
2022/10/12 08:59:01;;;;;;;26.65;15.93;;;;;;;14.26;100.00;97302.91;4984763;28;20500;-66
2022/10/12 09:01:29;;;;;;;31.15;16.65;;;;;;;14.27;100.00;97309.19;4975952;28;20117;-67
2022/10/12 09:04:14;;;;;;;35.83;18.27;;;;;;;14.02;100.00;97308.88;4984046;28;20038;-67
2022/10/12 09:06:55;;;;;;;31.33;17.98;;;;;;;13.86;100.00;97312.59;4983774;28;20100;-67
2022/10/12 09:09:39;;;;;;;32.78;17.33;;;;;;;13.98;100.00;97311.59;4979507;28;20050;-67
2022/10/12 09:12:32;;;;;;;34.47;17.40;;;;;;;14.25;100.00;97312.31;4980337;28;20093;-67
2022/10/12 09:15:01;;;;;;;30.10;17.92;;;;;;;14.29;100.00;97312.34;4984393;28;20656;-67
2022/10/12 09:17:46;;;;;;;33.78;16.50;;;;;;;14.23;100.00;97306.38;4981685;28;20151;-67
2022/10/12 09:20:19;;;;;;;30.27;15.18;;;;;;;14.68;100.00;97312.03;4979606;28;20038;-67
2022/10/12 09:22:49;;;;;;;33.65;16.20;;;;;;;14.07;100.00;97309.34;4984555;28;20042;-68
2022/10/12 09:25:16;;;;;;;32.17;17.23;;;;;;;14.08;100.00;97310.94;4979404;28;20559;-66
2022/10/12 09:27:44;;;;;;;29.83;16.20;;;;;;;14.06;100.00;97316.03;4983712;28;20100;-66
2022/10/12 09:30:13;;;;;;;27.08;15.88;;;;;;;14.50;100.00;97312.59;4982999;28;20042;-65
2022/10/12 09:33:02;;;;;;;29.88;15.23;;;;;;;15.04;100.00;97306.84;5004132;28;20128;-67
2022/10/12 09:35:27;;;;;;;28.80;16.00;;;;;;;15.41;100.00;97305.91;5000690;28;20046;-65
2022/10/12 09:37:53;;;;;;;29.55;15.52;;;;;;;15.61;100.00;97306.44;5005974;28;20614;-65
2022/10/12 09:40:26;;;;;;;28.95;17.17;;;;;;;15.37;100.00;97316.94;4999341;28;20041;-66
2022/10/12 09:42:53;;;;;;;36.58;19.52;;;;;;;14.57;100.00;97314.63;5004780;28;20042;-67
2022/10/12 09:45:21;;;;;;;31.15;17.17;;;;;;;14.99;100.00;97316.25;4998536;28;20498;-65
2022/10/12 09:48:09;;;;;;;29.15;17.10;;;;;;;15.56;100.00;97310.38;5003551;28;20145;-67
2022/10/12 09:50:54;;;;;;;38.95;18.08;;;;;;;15.53;100.00;97310.34;4983376;28;20038;-67
2022/10/12 09:53:27;;;;;;;38.22;17.40;;;;;;;14.97;100.00;97307.56;4981610;28;20514;-67
2022/10/12 09:55:57;;;;;;;35.92;16.90;;;;;;;14.91;100.00;97304.38;4987430;28;20048;-67
2022/10/12 09:58:24;;;;;;;42.38;20.88;;;;;;;14.88;100.00;97309.84;4983604;28;20844;-66
2022/10/12 10:01:17;;;;;;;34.60;19.00;;;;;;;15.47;100.00;97294.16;4985184;28;20050;-66
2022/10/12 10:03:47;;;;;;;36.47;21.48;;;;;;;15.64;100.00;97298.19;4983340;28;20050;-66
2022/10/12 10:06:14;;;;;;;39.38;22.75;;;;;;;15.47;100.00;97298.88;4987021;28;20058;-66
2022/10/12 10:08:44;;;;;;;38.08;22.67;;;;;;;15.09;100.00;97290.72;4984662;28;20510;-66
2022/10/12 10:11:21;;;;;;;33.75;19.35;;;;;;;15.21;100.00;97289.63;4976336;28;20049;-66
2022/10/12 10:13:51;;;;;;;24.65;12.68;;;;;;;15.76;100.00;97293.56;4984356;28;20038;-66
2022/10/12 10:16:18;;;;;;;27.55;14.05;;;;;;;16.15;100.00;97293.75;4977769;28;20053;-66
2022/10/12 10:18:49;;;;;;;27.52;15.57;;;;;;;16.04;100.00;97290.94;4984509;28;20534;-66
2022/10/12 10:21:27;;;;;;;31.40;14.82;;;;;;;16.23;100.00;97289.81;4978358;28;20057;-66
2022/10/12 10:23:55;;;;;;;23.50;14.25;;;;;;;16.40;100.00;97281.97;4983226;28;20088;-66
2022/10/12 10:26:22;;;;;;;26.27;14.68;;;;;;;16.76;100.00;97282.84;4977457;28;20531;-66
2022/10/12 10:28:54;;;;;;;25.48;14.13;;;;;;;16.97;100.00;97289.59;4983056;28;20043;-67
2022/10/12 10:31:24;;;;;;;22.30;12.38;;;;;;;17.02;100.00;97285.66;4978753;28;20056;-66
2022/10/12 10:34:22;;;;;;;21.00;10.73;;;;;;;17.10;100.00;97284.44;4982950;28;20166;-66
2022/10/12 10:36:51;;;;;;;19.63;10.32;;;;;;;17.14;100.00;97285.22;4938587;28;20065;-66
2022/10/12 10:39:29;;;;;;;21.17;11.38;;;;;;;17.09;100.00;97289.22;4978814;28;20038;-66
2022/10/12 10:42:07;;;;;;;17.98;10.63;;;;;;;17.02;100.00;97291.97;4982888;28;20038;-66
2022/10/12 10:44:35;;;;;;;24.77;14.80;;;;;;;16.97;100.00;97281.28;4983104;28;20391;-66
2022/10/12 10:47:08;;;;;;;22.65;10.35;;;;;;;16.75;100.00;97286.00;4982541;28;20638;-66
2022/10/12 10:49:44;;;;;;;19.98;10.05;;;;;;;16.97;100.00;97284.84;4982014;28;20565;-66
2022/10/12 10:52:18;;;;;;;19.17;10.25;;;;;;;17.12;100.00;97288.41;4978146;28;20069;-66
2022/10/12 10:54:44;;;;;;;31.75;15.20;;;;;;;16.75;100.00;97278.47;4982743;28;20133;-66
2022/10/12 10:57:15;;;;;;;28.27;14.25;;;;;;;16.72;100.00;97273.72;4979040;28;20049;-65
2022/10/12 10:59:49;;;;;;;23.08;13.63;;;;;;;16.78;100.00;97277.69;4985406;28;20034;-65
2022/10/12 11:02:27;;;;;;;25.17;13.70;;;;;;;16.81;100.00;97273.34;4982471;28;20055;-66
2022/10/12 11:05:00;;;;;;;23.60;13.30;;;;;;;16.80;100.00;97269.78;4989791;28;20046;-66
2022/10/12 11:07:48;;;;;;;26.15;13.30;;;;;;;16.35;100.00;97262.97;4984596;28;20383;-66
2022/10/12 11:10:41;;;;;;;23.80;13.68;;;;;;;16.14;100.00;97266.50;4985142;28;20053;-66
2022/10/12 11:13:21;;;;;;;28.25;14.18;;;;;;;16.40;100.00;97266.19;4975214;28;20073;-66
2022/10/12 11:15:57;;;;;;;29.25;12.40;;;;;;;16.75;100.00;97267.41;4965237;28;20039;-66
2022/10/12 11:18:44;;;;;;;27.10;12.43;;;;;;;16.67;100.00;97273.31;4956579;28;20833;-66
2022/10/12 11:21:19;;;;;;;30.45;13.25;;;;;;;16.35;100.00;97271.28;4961607;28;20042;-66